createdAt,value
2019-04-28T00:01:15.480Z,100617.20
2019-04-28T00:03:44.513Z,100610.53
2019-04-28T00:06:13.409Z,100616.24
2019-04-28T00:08:42.950Z,100604.56
2019-04-28T00:11:11.901Z,100612.66
2019-04-28T00:13:41.751Z,100616.19
2019-04-28T00:16:11.555Z,100606.86
2019-04-28T00:18:41.695Z,100612.05
2019-04-28T00:21:29.217Z,100602.06
2019-04-28T00:24:16.253Z,100603.41
2019-04-28T00:26:51.548Z,100602.75
2019-04-28T00:29:21.081Z,100596.77
2019-04-28T00:31:51.249Z,100602.78
2019-04-28T00:34:21.252Z,100595.11
2019-04-28T00:36:55.743Z,100598.10
2019-04-28T00:39:24.732Z,100598.10
2019-04-28T00:41:53.694Z,100535.19
2019-04-28T00:44:23.736Z,100591.91
2019-04-28T00:46:52.811Z,100595.91
2019-04-28T00:49:41.930Z,100595.91
2019-04-28T00:52:11.273Z,100600.73
2019-04-28T00:54:42.079Z,100603.73
2019-04-28T00:57:11.353Z,100602.42
2019-04-28T00:59:52.208Z,100600.77
2019-04-28T01:02:34.090Z,100608.41
2019-04-28T01:05:03.371Z,100600.91
2019-04-28T01:07:33.033Z,100601.75
2019-04-28T01:10:02.323Z,100602.42
2019-04-28T01:12:31.339Z,100606.61
2019-04-28T01:15:04.569Z,100601.78
2019-04-28T01:17:49.701Z,100603.79
2019-04-28T01:20:19.908Z,100606.13
2019-04-28T01:22:49.685Z,100614.48
2019-04-28T01:25:20.328Z,100621.14
2019-04-28T01:28:00.104Z,100599.69
2019-04-28T01:30:49.947Z,100628.16
2019-04-28T01:33:29.470Z,100627.80
2019-04-28T01:36:00.347Z,100628.48
2019-04-28T01:38:30.211Z,100622.99
2019-04-28T01:40:59.967Z,100623.16
2019-04-28T01:43:31.307Z,100616.84
2019-04-28T01:46:00.266Z,100620.33
2019-04-28T01:48:29.645Z,100618.50
2019-04-28T01:50:59.904Z,100618.48
2019-04-28T01:53:30.656Z,100621.66
2019-04-28T01:55:59.622Z,100624.33
2019-04-28T01:58:29.679Z,100629.14
2019-04-28T02:00:59.554Z,100626.16
2019-04-28T02:03:30.560Z,100622.83
2019-04-28T02:06:00.141Z,100621.83
2019-04-28T02:08:30.253Z,100626.47
2019-04-28T02:11:00.158Z,100623.15
2019-04-28T02:13:29.843Z,100623.63
2019-04-28T02:16:00.168Z,100630.77
2019-04-28T02:18:29.924Z,100634.74
2019-04-28T02:21:06.356Z,100634.72
2019-04-28T02:23:35.999Z,100630.73
2019-04-28T02:26:04.901Z,100629.05
2019-04-28T02:28:33.893Z,100629.73
2019-04-28T02:31:02.887Z,100631.69
2019-04-28T02:33:31.801Z,100639.14
2019-04-28T02:36:01.500Z,100626.38
2019-04-28T02:38:33.957Z,100636.39
2019-04-28T02:41:01.166Z,100624.63
2019-04-28T02:43:30.821Z,100624.63
2019-04-28T02:46:00.768Z,100626.30
2019-04-28T02:48:31.065Z,100628.45
2019-04-28T02:51:13.130Z,100629.26
2019-04-28T02:53:46.211Z,100624.27
2019-04-28T02:56:15.008Z,100622.02
2019-04-28T02:58:43.865Z,100625.16
2019-04-28T03:01:22.734Z,100624.33
2019-04-28T03:03:50.749Z,100631.81
2019-04-28T03:06:20.674Z,100630.64
2019-04-28T03:08:50.672Z,100617.38
2019-04-28T03:11:20.460Z,100619.39
2019-04-28T03:13:51.105Z,100619.36
2019-04-28T03:16:22.867Z,100621.88
2019-04-28T03:18:51.525Z,100629.67
2019-04-28T03:21:21.495Z,100627.04
2019-04-28T03:23:51.686Z,100632.11
2019-04-28T03:26:30.984Z,100633.25
2019-04-28T03:29:06.282Z,100634.55
2019-04-28T03:32:16.516Z,100647.27
2019-04-28T03:34:23.848Z,100640.09
2019-04-28T03:36:52.893Z,100645.41
2019-04-28T03:39:21.946Z,100651.84
2019-04-28T03:41:50.849Z,100651.17
2019-04-28T03:44:20.871Z,100649.77
2019-04-28T03:46:53.006Z,100654.54
2019-04-28T03:49:32.322Z,100655.15
2019-04-28T03:52:03.425Z,100660.74
2019-04-28T03:54:32.312Z,100658.71
2019-04-28T03:57:01.492Z,100661.69
2019-04-28T03:59:31.121Z,100664.80
2019-04-28T04:02:03.162Z,100668.28
2019-04-28T04:04:32.211Z,100661.97
2019-04-28T04:07:01.620Z,100664.19
2019-04-28T04:10:01.785Z,100668.34
2019-04-28T04:12:50.953Z,100672.84
2019-04-28T04:15:49.235Z,100678.63
2019-04-28T04:18:21.213Z,100672.19
2019-04-28T04:20:51.256Z,100672.14
2019-04-28T04:23:22.707Z,100668.48
2019-04-28T04:25:51.309Z,100667.49
2019-04-28T04:28:20.784Z,100667.11
2019-04-28T04:30:50.842Z,100676.84
2019-04-28T04:33:20.797Z,100678.17
2019-04-28T04:35:51.747Z,100679.22
2019-04-28T04:38:21.809Z,100682.20
2019-04-28T04:40:51.432Z,100692.20
2019-04-28T04:43:23.201Z,100694.46
2019-04-28T04:45:54.744Z,100696.58
2019-04-28T04:48:23.704Z,100696.62
2019-04-28T04:50:52.760Z,100702.64
2019-04-28T04:53:21.566Z,100699.65
2019-04-28T04:55:52.698Z,100701.19
2019-04-28T04:58:21.485Z,100700.83
2019-04-28T05:01:05.201Z,100703.22
2019-04-28T05:03:36.083Z,100708.42
2019-04-28T05:06:24.061Z,100712.09
2019-04-28T05:08:52.944Z,100706.80
2019-04-28T05:11:22.012Z,100707.64
2019-04-28T05:13:50.841Z,100708.49
2019-04-28T05:16:19.835Z,100711.83
2019-04-28T05:18:49.895Z,100719.20
2019-04-28T05:21:19.227Z,100719.20
2019-04-28T05:24:09.230Z,100724.40
2019-04-28T05:26:40.912Z,100727.36
2019-04-28T05:29:10.024Z,100723.05
2019-04-28T05:31:40.147Z,100721.07
2019-04-28T05:34:11.496Z,100717.94
2019-04-28T05:36:44.409Z,100723.41
2019-04-28T05:39:10.794Z,100729.73
2019-04-28T05:41:40.063Z,100724.75
2019-04-28T05:44:10.042Z,100728.08
2019-04-28T05:46:40.274Z,100724.41
2019-04-28T05:49:29.717Z,100737.73
2019-04-28T05:52:03.159Z,100727.77
2019-04-28T05:54:43.069Z,100737.73
2019-04-28T05:57:20.777Z,100734.58
2019-04-28T05:59:55.016Z,100737.73
2019-04-28T06:02:28.215Z,100747.41
2019-04-28T06:04:57.077Z,100748.28
2019-04-28T06:07:37.701Z,100748.77
2019-04-28T06:10:06.969Z,100746.93
2019-04-28T06:12:35.941Z,100744.41
2019-04-28T06:15:05.818Z,100752.56
2019-04-28T06:17:34.669Z,100748.91
2019-04-28T06:20:03.782Z,100748.39
2019-04-28T06:22:32.764Z,100758.63
2019-04-28T06:25:01.560Z,100756.16
2019-04-28T06:27:32.685Z,100754.00
2019-04-28T06:30:01.114Z,100756.86
2019-04-28T06:32:30.020Z,100754.82
2019-04-28T06:34:58.904Z,100754.77
2019-04-28T06:37:27.986Z,100755.13
2019-04-28T06:39:56.746Z,100756.89
2019-04-28T06:42:25.798Z,100758.30
2019-04-28T06:44:54.747Z,100758.77
2019-04-28T06:47:23.709Z,100762.59
2019-04-28T06:49:52.500Z,100771.30
2019-04-28T06:52:21.426Z,100771.11
2019-04-28T06:54:50.299Z,100767.25
2019-04-28T06:57:19.258Z,100771.11
2019-04-28T06:59:48.143Z,100774.32
2019-04-28T07:02:17.029Z,100768.66
2019-04-28T07:04:45.841Z,100777.28
2019-04-28T07:07:14.620Z,100766.92
2019-04-28T07:09:43.446Z,100772.59
2019-04-28T07:12:12.388Z,100770.56
2019-04-28T07:14:41.215Z,100776.41
2019-04-28T07:17:10.017Z,100771.35
2019-04-28T07:19:38.962Z,100772.83
2019-04-28T07:22:27.980Z,100782.73
2019-04-28T07:24:56.788Z,100778.59
2019-04-28T07:27:25.676Z,100777.95
2019-04-28T07:29:54.650Z,100774.82
2019-04-28T07:32:23.632Z,100774.19
2019-04-28T07:34:52.548Z,100778.93
2019-04-28T07:37:21.567Z,100780.02
2019-04-28T07:39:50.467Z,100783.95
2019-04-28T07:42:19.234Z,100777.10
2019-04-28T07:44:48.182Z,100780.77
2019-04-28T07:47:17.241Z,100779.27
2019-04-28T07:49:46.307Z,100781.96
2019-04-28T07:52:39.385Z,100769.56
2019-04-28T07:55:08.510Z,100779.00
2019-04-28T07:57:37.408Z,100771.10
2019-04-28T08:00:06.820Z,100782.02
2019-04-28T08:02:35.594Z,100776.00
2019-04-28T08:05:04.739Z,100777.67
2019-04-28T08:07:33.750Z,100780.61
2019-04-28T08:10:02.735Z,100778.77
2019-04-28T08:12:31.653Z,100783.11
2019-04-28T08:15:00.697Z,100777.41
2019-04-28T08:17:29.723Z,100782.41
2019-04-28T08:19:58.680Z,100783.69
2019-04-28T08:22:27.492Z,100782.41
2019-04-28T08:24:56.414Z,100785.25
2019-04-28T08:27:25.358Z,100780.09
2019-04-28T08:29:58.575Z,100784.02
2019-04-28T08:32:34.070Z,100786.58
2019-04-28T08:35:03.047Z,100784.31
2019-04-28T08:37:31.998Z,100778.47
2019-04-28T08:40:00.949Z,100778.88
2019-04-28T08:42:29.910Z,100778.17
2019-04-28T08:44:58.841Z,100783.06
2019-04-28T08:47:27.661Z,100784.11
2019-04-28T08:49:56.557Z,100776.58
2019-04-28T08:52:25.586Z,100778.11
2019-04-28T08:54:54.605Z,100781.63
2019-04-28T08:57:23.537Z,100780.38
2019-04-28T08:59:52.476Z,100783.20
2019-04-28T09:02:21.714Z,100787.46
2019-04-28T09:04:50.797Z,100776.63
2019-04-28T09:07:19.767Z,100773.32
2019-04-28T09:09:48.734Z,100774.18
2019-04-28T09:12:17.662Z,100776.66
2019-04-28T09:14:46.861Z,100770.50
2019-04-28T09:17:16.369Z,100783.03
2019-04-28T09:19:45.452Z,100781.42
2019-04-28T09:22:14.547Z,100779.25
2019-04-28T09:24:43.547Z,100779.36
2019-04-28T09:27:12.535Z,100784.27
2019-04-28T09:29:41.531Z,100783.97
2019-04-28T09:32:10.537Z,100790.79
2019-04-28T09:34:39.614Z,100783.30
2019-04-28T09:37:08.564Z,100790.23
2019-04-28T09:39:48.073Z,100781.72
2019-04-28T09:42:35.081Z,100787.25
2019-04-28T09:45:06.906Z,100784.05
2019-04-28T09:47:35.991Z,100784.40
2019-04-28T09:50:05.350Z,100780.99
2019-04-28T09:52:35.368Z,100774.89
2019-04-28T09:55:04.967Z,100784.62
2019-04-28T09:57:34.120Z,100781.31
2019-04-28T10:00:03.715Z,100754.92
2019-04-28T10:02:32.777Z,100783.77
2019-04-28T10:05:01.763Z,100780.69
2019-04-28T10:07:32.235Z,100783.20
2019-04-28T10:10:01.245Z,100785.48
2019-04-28T10:12:30.227Z,100777.35
2019-04-28T10:14:59.221Z,100779.03
2019-04-28T10:17:28.230Z,100774.45
2019-04-28T10:19:57.247Z,100777.93
2019-04-28T10:22:26.133Z,100778.70
2019-04-28T10:24:55.173Z,100771.00
2019-04-28T10:27:24.152Z,100777.55
2019-04-28T10:29:52.982Z,100773.72
2019-04-28T10:32:21.989Z,100769.06
2019-04-28T10:34:55.176Z,100775.11
2019-04-28T10:37:23.112Z,100772.25
2019-04-28T10:40:01.779Z,100764.09
2019-04-28T10:42:30.956Z,100769.47
2019-04-28T10:45:00.553Z,100774.41
2019-04-28T10:47:29.835Z,100766.16
2019-04-28T10:49:58.960Z,100770.89
2019-04-28T10:52:28.450Z,100766.69
2019-04-28T10:54:57.392Z,100759.73
2019-04-28T10:57:26.355Z,100765.42
2019-04-28T10:59:55.209Z,100762.36
2019-04-28T11:02:24.120Z,100762.42
2019-04-28T11:05:08.559Z,100765.83
2019-04-28T11:07:36.322Z,100766.72
2019-04-28T11:10:20.192Z,100762.47
2019-04-28T11:12:49.229Z,100763.63
2019-04-28T11:15:26.269Z,100765.12
2019-04-28T11:17:55.254Z,100767.33
2019-04-28T11:20:25.393Z,100772.83
2019-04-28T11:22:54.354Z,100772.83
2019-04-28T11:25:25.093Z,100777.25
2019-04-28T11:27:55.485Z,100771.73
2019-04-28T11:30:24.723Z,100776.61
2019-04-28T11:33:11.577Z,100775.06
2019-04-28T11:35:40.822Z,100776.42
2019-04-28T11:38:10.100Z,100769.41
2019-04-28T11:40:39.125Z,100774.67
2019-04-28T11:43:08.121Z,100767.95
2019-04-28T11:45:37.120Z,100770.18
2019-04-28T11:48:06.294Z,100775.46
2019-04-28T11:50:35.405Z,100773.69
2019-04-28T11:53:04.570Z,100771.55
2019-04-28T11:55:33.847Z,100774.75
2019-04-28T11:58:02.913Z,100772.87
2019-04-28T12:00:34.077Z,100763.72
2019-04-28T12:03:03.278Z,100776.35
2019-04-28T12:05:44.245Z,100769.09
2019-04-28T12:08:13.473Z,100774.40
2019-04-28T12:10:47.765Z,100779.45
2019-04-28T12:13:38.721Z,100779.56
2019-04-28T12:16:17.384Z,100778.63
2019-04-28T12:19:02.177Z,100777.84
2019-04-28T12:21:31.229Z,100777.84
2019-04-28T12:24:00.199Z,100780.08
2019-04-28T12:26:29.165Z,100772.81
2019-04-28T12:29:00.746Z,100771.30
2019-04-28T12:31:28.508Z,100772.34
2019-04-28T12:33:57.605Z,100769.66
2019-04-28T12:36:26.707Z,100772.56
2019-04-28T12:38:55.696Z,100762.44
2019-04-28T12:41:24.619Z,100769.03
2019-04-28T12:43:53.450Z,100773.67
2019-04-28T12:46:22.368Z,100773.42
2019-04-28T12:48:54.782Z,100768.94
2019-04-28T12:51:23.725Z,100765.80
2019-04-28T12:53:56.932Z,100767.97
2019-04-28T12:56:26.128Z,100777.25
2019-04-28T12:58:59.628Z,100771.41
2019-04-28T13:01:38.507Z,100770.13
2019-04-28T13:04:32.714Z,100776.50
2019-04-28T13:07:03.394Z,100770.15
2019-04-28T13:09:34.154Z,100766.39
2019-04-28T13:12:03.505Z,100775.13
2019-04-28T13:14:33.676Z,100769.63
2019-04-28T13:17:04.267Z,100767.22
2019-04-28T13:19:33.342Z,100774.39
2019-04-28T13:22:05.557Z,100772.94
2019-04-28T13:24:34.594Z,100771.12
2019-04-28T13:27:03.990Z,100775.27
2019-04-28T13:29:33.620Z,100770.45
2019-04-28T13:32:02.917Z,100772.33
2019-04-28T13:34:35.916Z,100767.41
2019-04-28T13:37:07.771Z,100765.95
2019-04-28T13:39:58.170Z,100758.59
2019-04-28T13:42:27.464Z,100758.83
2019-04-28T13:45:08.954Z,100763.33
2019-04-28T13:47:38.725Z,100761.78
2019-04-28T13:50:40.285Z,100763.08
2019-04-28T13:53:11.082Z,100751.14
2019-04-28T13:55:54.671Z,100749.25
2019-04-28T13:58:27.633Z,100744.20
2019-04-28T14:01:24.700Z,100744.81
2019-04-28T14:04:03.985Z,100744.88
2019-04-28T14:06:35.063Z,100743.34
2019-04-28T14:09:08.267Z,100753.14
2019-04-28T14:11:37.657Z,100747.54
2019-04-28T14:14:06.944Z,100745.25
2019-04-28T14:16:36.274Z,100746.64
2019-04-28T14:19:05.650Z,100746.69
2019-04-28T14:21:34.643Z,100732.50
2019-04-28T14:24:03.898Z,100734.67
2019-04-28T14:26:33.270Z,100742.05
2019-04-28T14:29:02.466Z,100735.24
2019-04-28T14:31:31.272Z,100734.42
2019-04-28T14:34:00.314Z,100727.55
2019-04-28T14:36:41.463Z,100727.51
2019-04-28T14:38:59.953Z,100739.66
2019-04-28T14:41:29.103Z,100727.31
2019-04-28T14:43:57.888Z,100691.14
2019-04-28T14:46:26.863Z,100724.91
2019-04-28T14:48:59.540Z,100718.67
2019-04-28T14:51:28.771Z,100721.22
2019-04-28T14:53:58.595Z,100717.17
2019-04-28T14:56:29.663Z,100720.06
2019-04-28T14:58:58.803Z,100712.91
2019-04-28T15:01:50.193Z,100713.64
2019-04-28T15:04:47.387Z,100718.97
2019-04-28T15:07:35.302Z,100715.55
2019-04-28T15:10:12.677Z,100723.97
2019-04-28T15:12:41.627Z,100712.00
2019-04-28T15:15:10.836Z,100712.92
2019-04-28T15:17:39.864Z,100724.53
2019-04-28T15:20:08.856Z,100716.50
2019-04-28T15:22:37.711Z,100716.20
2019-04-28T15:25:06.840Z,100716.69
2019-04-28T15:27:35.887Z,100715.89
2019-04-28T15:30:05.133Z,100718.72
2019-04-28T15:32:34.096Z,100716.91
2019-04-28T15:35:03.011Z,100726.97
2019-04-28T15:37:31.918Z,100727.03
2019-04-28T15:40:00.909Z,100723.95
2019-04-28T15:42:29.807Z,100723.95
2019-04-28T15:44:58.674Z,100728.69
2019-04-28T15:47:27.595Z,100724.25
2019-04-28T15:49:56.403Z,100726.69
2019-04-28T15:52:25.246Z,100720.52
2019-04-28T15:54:54.237Z,100719.27
2019-04-28T15:57:23.272Z,100726.83
2019-04-28T15:59:52.152Z,100741.47
2019-04-28T16:02:21.067Z,100736.28
2019-04-28T16:04:50.104Z,100733.05
2019-04-28T16:07:25.078Z,100736.45
2019-04-28T16:09:49.512Z,100741.16
2019-04-28T16:12:18.300Z,100740.34
2019-04-28T16:14:47.433Z,100740.34
2019-04-28T16:17:44.469Z,100745.25
2019-04-28T16:20:16.019Z,100746.53
2019-04-28T16:22:45.012Z,100753.00
2019-04-28T16:25:14.145Z,100744.03
2019-04-28T16:27:43.041Z,100747.08
2019-04-28T16:30:12.134Z,100755.53
2019-04-28T16:32:41.186Z,100762.28
2019-04-28T16:35:10.140Z,100754.79
2019-04-28T16:37:39.360Z,100745.20
2019-04-28T16:40:09.655Z,100754.70
2019-04-28T16:42:41.557Z,100753.62
2019-04-28T16:45:23.520Z,100753.47
2019-04-28T16:47:52.600Z,100754.58
2019-04-28T16:50:21.589Z,100763.83
2019-04-28T16:52:50.900Z,100767.88
2019-04-28T16:55:23.992Z,100765.06
2019-04-28T16:58:11.909Z,100773.58
2019-04-28T17:01:14.109Z,100773.53
2019-04-28T17:03:42.944Z,100771.10
2019-04-28T17:06:11.962Z,100772.07
2019-04-28T17:08:40.883Z,100782.13
2019-04-28T17:11:10.150Z,100781.21
2019-04-28T17:13:39.187Z,100779.56
2019-04-28T17:16:08.323Z,100783.98
2019-04-28T17:18:37.216Z,100785.11
2019-04-28T17:21:06.217Z,100779.72
2019-04-28T17:23:35.106Z,100791.28
2019-04-28T17:26:03.958Z,100785.87
2019-04-28T17:28:32.842Z,100792.93
2019-04-28T17:31:01.707Z,100792.42
2019-04-28T17:33:30.838Z,100796.54
2019-04-28T17:35:59.863Z,100803.37
2019-04-28T17:38:28.786Z,100801.09
2019-04-28T17:40:57.816Z,100799.63
2019-04-28T17:43:26.877Z,100798.93
2019-04-28T17:45:55.807Z,100798.72
2019-04-28T17:48:30.094Z,100795.95
2019-04-28T17:50:58.938Z,100797.85
2019-04-28T17:53:27.943Z,100797.61
2019-04-28T17:55:56.916Z,100800.94
2019-04-28T17:58:25.943Z,100807.45
2019-04-28T18:01:15.272Z,100811.43
2019-04-28T18:03:56.510Z,100812.48
2019-04-28T18:06:25.965Z,100814.49
2019-04-28T18:08:55.033Z,100815.54
2019-04-28T18:11:24.066Z,100824.45
2019-04-28T18:13:52.957Z,100823.14
2019-04-28T18:16:39.487Z,100823.08
2019-04-28T18:19:10.424Z,100835.77
2019-04-28T18:21:39.418Z,100842.12
2019-04-28T18:24:08.237Z,100850.46
2019-04-28T18:26:38.194Z,100846.09
2019-04-28T18:29:08.821Z,100852.88
2019-04-28T18:31:54.741Z,100854.96
2019-04-28T18:34:33.662Z,100854.45
2019-04-28T18:37:20.756Z,100854.45
2019-04-28T18:40:22.172Z,100852.94
2019-04-28T18:42:57.843Z,100856.86
2019-04-28T18:45:26.937Z,100871.34
2019-04-28T18:47:55.793Z,100873.66
2019-04-28T18:50:24.800Z,100885.09
2019-04-28T18:52:53.696Z,100881.09
2019-04-28T18:55:22.641Z,100891.36
2019-04-28T18:57:51.500Z,100893.77
2019-04-28T19:00:22.433Z,100896.09
2019-04-28T19:02:51.823Z,100905.59
2019-04-28T19:05:22.449Z,100914.29
2019-04-28T19:08:16.547Z,100916.84
2019-04-28T19:11:26.298Z,100909.58
2019-04-28T19:14:02.389Z,100915.77
2019-04-28T19:16:59.386Z,100922.64
2019-04-28T19:19:29.044Z,100925.25
2019-04-28T19:21:57.884Z,100932.53
2019-04-28T19:24:27.565Z,100931.91
2019-04-28T19:26:56.424Z,100935.13
2019-04-28T19:29:25.307Z,100933.67
2019-04-28T19:31:54.302Z,100936.29
2019-04-28T19:34:23.284Z,100934.83
2019-04-28T19:36:52.300Z,100941.55
2019-04-28T19:39:21.189Z,100943.25
2019-04-28T19:41:50.216Z,100943.64
2019-04-28T19:44:19.023Z,100944.02
2019-04-28T19:46:48.016Z,100947.38
2019-04-28T19:49:16.906Z,100944.07
2019-04-28T19:51:46.100Z,100953.17
2019-04-28T19:54:16.015Z,100955.06
2019-04-28T19:56:54.801Z,100947.91
2019-04-28T19:59:48.706Z,100951.93
2019-04-28T20:02:17.638Z,100958.00
2019-04-28T20:04:46.632Z,100954.32
2019-04-28T20:07:15.618Z,100953.67
2019-04-28T20:09:44.588Z,100953.67
2019-04-28T20:12:13.446Z,100953.70
2019-04-28T20:14:42.381Z,100960.92
2019-04-28T20:17:11.356Z,100960.77
2019-04-28T20:19:40.407Z,100960.47
2019-04-28T20:22:09.618Z,100963.47
2019-04-28T20:24:46.962Z,100963.48
2019-04-28T20:27:09.207Z,100966.33
2019-04-28T20:29:38.096Z,100963.16
2019-04-28T20:32:07.126Z,100966.51
2019-04-28T20:34:35.959Z,100966.33
2019-04-28T20:37:24.028Z,100966.84
2019-04-28T20:39:57.405Z,100975.17
2019-04-28T20:42:40.588Z,100972.84
2019-04-28T20:45:11.002Z,100980.52
2019-04-28T20:47:39.934Z,100986.88
2019-04-28T20:50:09.395Z,100991.56
2019-04-28T20:52:38.460Z,100995.73
2019-04-28T20:55:07.830Z,101003.37
2019-04-28T20:57:36.988Z,100994.52
2019-04-28T21:00:06.434Z,100998.84
2019-04-28T21:02:35.611Z,101001.00
2019-04-28T21:05:05.022Z,101004.17
2019-04-28T21:07:34.507Z,101001.86
2019-04-28T21:10:03.951Z,101009.70
2019-04-28T21:12:32.869Z,101012.17
2019-04-28T21:15:01.986Z,101009.33
2019-04-28T21:17:30.966Z,101014.84
2019-04-28T21:19:59.890Z,101007.83
2019-04-28T21:22:28.995Z,101008.83
2019-04-28T21:24:57.886Z,101015.16
2019-04-28T21:27:26.774Z,101018.63
2019-04-28T21:29:55.563Z,101013.11
2019-04-28T21:32:24.575Z,101012.94
2019-04-28T21:34:53.805Z,101014.48
2019-04-28T21:37:22.705Z,101019.15
2019-04-28T21:39:51.651Z,101013.19
2019-04-28T21:42:22.977Z,101012.89
2019-04-28T21:45:16.586Z,101010.87
2019-04-28T21:47:45.564Z,101009.20
2019-04-28T21:50:14.546Z,101021.01
2019-04-28T21:52:43.538Z,101020.44
2019-04-28T21:55:12.578Z,101020.59
2019-04-28T21:57:41.475Z,101021.39
2019-04-28T22:00:14.125Z,101021.36
2019-04-28T22:02:43.057Z,101020.86
2019-04-28T22:05:12.030Z,101021.36
2019-04-28T22:07:41.053Z,101023.63
2019-04-28T22:10:10.632Z,101025.23
2019-04-28T22:12:39.524Z,101030.56
2019-04-28T22:15:08.612Z,101027.53
2019-04-28T22:17:37.732Z,101030.90
2019-04-28T22:20:06.805Z,101035.53
2019-04-28T22:22:35.818Z,101034.53
2019-04-28T22:25:21.460Z,101035.52
2019-04-28T22:27:50.446Z,101037.16
2019-04-28T22:30:19.535Z,101040.11
2019-04-28T22:32:48.621Z,101041.06
2019-04-28T22:35:17.851Z,101035.69
2019-04-28T22:37:46.779Z,101045.64
2019-04-28T22:40:15.801Z,101049.01
2019-04-28T22:42:44.799Z,101044.63
2019-04-28T22:45:14.503Z,101049.63
2019-04-28T22:47:43.797Z,101052.29
2019-04-28T22:50:35.775Z,101052.12
2019-04-28T22:53:04.837Z,101049.47
2019-04-28T22:55:37.030Z,101054.58
2019-04-28T22:58:19.309Z,101061.52
2019-04-28T23:00:55.409Z,101067.95
2019-04-28T23:03:48.430Z,101071.34
2019-04-28T23:06:17.403Z,101067.61
2019-04-28T23:08:46.842Z,101079.30
2019-04-28T23:11:15.883Z,101077.18
2019-04-28T23:13:44.903Z,101081.06
2019-04-28T23:16:13.957Z,101080.96
2019-04-28T23:18:43.050Z,101077.20
2019-04-28T23:21:29.339Z,101073.03
2019-04-28T23:23:58.465Z,101074.92
2019-04-28T23:26:27.395Z,101078.97
2019-04-28T23:28:56.452Z,101076.03
2019-04-28T23:31:25.364Z,101078.70
2019-04-28T23:33:54.355Z,101077.66
2019-04-28T23:36:23.253Z,101083.48
2019-04-28T23:38:52.181Z,101088.64
2019-04-28T23:41:31.460Z,101082.98
2019-04-28T23:44:00.342Z,101083.30
2019-04-28T23:46:47.287Z,101080.80
2019-04-28T23:49:16.308Z,101081.08
2019-04-28T23:51:52.492Z,101077.85
2019-04-28T23:54:21.616Z,101077.36
2019-04-28T23:56:50.626Z,101078.59
2019-04-28T23:59:19.638Z,101076.59
